createdAt,value
2023-05-17T00:02:13.906Z,2.80
2023-05-17T00:04:40.434Z,2.90
2023-05-17T00:07:09.884Z,2.97
2023-05-17T00:09:36.573Z,3.10
2023-05-17T00:12:03.236Z,4.10
2023-05-17T00:14:29.711Z,3.25
2023-05-17T00:16:56.150Z,3.38
2023-05-17T00:19:22.864Z,3.53
2023-05-17T00:21:49.438Z,3.53
2023-05-17T00:24:15.856Z,3.33
2023-05-17T00:26:42.370Z,3.35
2023-05-17T00:29:08.798Z,4.45
2023-05-17T00:31:35.271Z,3.63
2023-05-17T00:34:01.694Z,3.78
2023-05-17T00:36:28.106Z,3.30
2023-05-17T00:38:54.531Z,3.50
2023-05-17T00:41:20.957Z,3.10
2023-05-17T00:43:47.393Z,3.80
2023-05-17T00:46:13.858Z,3.75
2023-05-17T00:48:40.386Z,3.83
2023-05-17T00:51:07.058Z,3.75
2023-05-17T00:53:34.907Z,3.63
2023-05-17T00:56:01.417Z,4.10
2023-05-17T00:58:27.889Z,3.85
2023-05-17T01:00:54.335Z,3.80
2023-05-17T01:03:22.607Z,3.47
2023-05-17T01:05:50.736Z,3.25
2023-05-17T01:08:17.323Z,3.95
2023-05-17T01:11:14.784Z,3.75
2023-05-17T01:13:44.161Z,3.45
2023-05-17T01:16:14.487Z,4.15
2023-05-17T01:18:52.929Z,4.25
2023-05-17T01:21:36.009Z,3.85
2023-05-17T01:24:27.373Z,3.90
2023-05-17T01:26:55.676Z,3.95
2023-05-17T01:29:25.834Z,4.00
2023-05-17T01:31:53.317Z,4.28
2023-05-17T01:34:27.042Z,3.88
2023-05-17T01:36:53.623Z,4.57
2023-05-17T01:39:20.299Z,4.35
2023-05-17T01:42:28.181Z,4.25
2023-05-17T01:45:33.168Z,4.45
2023-05-17T01:48:18.355Z,4.05
2023-05-17T01:50:49.163Z,4.30
2023-05-17T01:53:22.262Z,4.43
2023-05-17T01:55:53.836Z,4.65
2023-05-17T01:58:22.769Z,4.50
2023-05-17T02:00:49.784Z,4.18
2023-05-17T02:03:20.310Z,4.30
2023-05-17T02:05:46.786Z,4.53
2023-05-17T02:08:13.368Z,4.40
2023-05-17T02:10:39.959Z,4.53
2023-05-17T02:13:06.379Z,4.82
2023-05-17T02:15:32.862Z,4.55
2023-05-17T02:17:59.348Z,4.55
2023-05-17T02:20:25.849Z,5.00
2023-05-17T02:22:52.310Z,4.50
2023-05-17T02:25:18.812Z,5.25
2023-05-17T02:27:45.277Z,4.97
2023-05-17T02:30:15.621Z,4.38
2023-05-17T02:32:43.614Z,5.95
2023-05-17T02:35:10.096Z,4.95
2023-05-17T02:37:36.529Z,4.32
2023-05-17T02:40:04.225Z,5.60
2023-05-17T02:42:30.723Z,4.65
2023-05-17T02:44:58.015Z,5.10
2023-05-17T02:47:24.583Z,5.35
2023-05-17T02:49:51.023Z,5.55
2023-05-17T02:52:17.434Z,5.40
2023-05-17T02:54:43.874Z,5.05
2023-05-17T02:57:10.812Z,4.47
2023-05-17T02:59:37.371Z,5.30
2023-05-17T03:02:03.881Z,4.50
2023-05-17T03:04:30.516Z,4.85
2023-05-17T03:06:57.170Z,5.45
2023-05-17T03:09:23.639Z,5.57
2023-05-17T03:11:50.193Z,4.80
2023-05-17T03:14:16.633Z,5.55
2023-05-17T03:16:43.051Z,5.22
2023-05-17T03:19:09.610Z,4.75
2023-05-17T03:21:36.189Z,4.53
2023-05-17T03:24:02.649Z,4.60
2023-05-17T03:26:29.090Z,4.80
2023-05-17T03:28:55.532Z,5.00
2023-05-17T03:31:21.999Z,4.72
2023-05-17T03:33:48.570Z,4.78
2023-05-17T03:36:15.165Z,6.13
2023-05-17T03:38:41.902Z,5.78
2023-05-17T03:41:08.415Z,5.05
2023-05-17T03:43:34.912Z,4.85
2023-05-17T03:46:01.354Z,5.45
2023-05-17T03:48:28.031Z,5.65
2023-05-17T03:50:54.714Z,5.78
2023-05-17T03:53:21.637Z,5.80
2023-05-17T03:55:48.061Z,6.03
2023-05-17T03:58:15.561Z,5.07
2023-05-17T04:00:42.031Z,5.80
2023-05-17T04:03:08.572Z,5.15
2023-05-17T04:05:35.086Z,5.18
2023-05-17T04:08:01.612Z,5.63
2023-05-17T04:10:28.115Z,5.10
2023-05-17T04:12:54.582Z,5.82
2023-05-17T04:15:22.002Z,5.63
2023-05-17T04:17:48.590Z,5.75
2023-05-17T04:20:15.264Z,5.32
2023-05-17T04:22:41.753Z,5.10
2023-05-17T04:25:08.565Z,5.55
2023-05-17T04:27:35.038Z,5.72
2023-05-17T04:30:02.299Z,6.18
2023-05-17T04:32:29.530Z,6.03
2023-05-17T04:34:56.311Z,5.13
2023-05-17T04:37:22.969Z,5.85
2023-05-17T04:39:49.375Z,5.70
2023-05-17T04:42:16.392Z,6.07
2023-05-17T04:44:42.935Z,6.22
2023-05-17T04:47:09.414Z,5.28
2023-05-17T04:49:36.085Z,5.53
2023-05-17T04:52:04.656Z,5.55
2023-05-17T04:54:32.461Z,5.80
2023-05-17T04:56:58.879Z,5.45
2023-05-17T04:59:25.343Z,6.00
2023-05-17T05:01:51.756Z,6.03
2023-05-17T05:04:18.293Z,6.18
2023-05-17T05:06:44.783Z,6.63
2023-05-17T05:09:11.374Z,6.18
2023-05-17T05:11:37.819Z,5.00
2023-05-17T05:14:04.329Z,5.55
2023-05-17T05:16:30.765Z,5.28
2023-05-17T05:18:57.419Z,6.22
2023-05-17T05:21:24.103Z,4.97
2023-05-17T05:23:50.588Z,6.05
2023-05-17T05:26:17.076Z,5.10
2023-05-17T05:28:43.507Z,4.95
2023-05-17T05:31:09.947Z,4.35
2023-05-17T05:33:36.502Z,4.57
2023-05-17T05:36:03.160Z,4.20
2023-05-17T05:38:29.569Z,4.07
2023-05-17T05:40:55.970Z,3.67
2023-05-17T05:43:22.443Z,4.03
2023-05-17T05:45:49.338Z,3.95
2023-05-17T05:48:15.862Z,3.70
2023-05-17T05:50:43.839Z,3.33
2023-05-17T05:53:18.751Z,3.85
2023-05-17T05:55:46.009Z,3.20
2023-05-17T05:58:12.489Z,3.20
2023-05-17T06:00:38.913Z,3.70
2023-05-17T06:03:06.216Z,3.95
2023-05-17T06:05:32.803Z,3.53
2023-05-17T06:07:59.378Z,3.17
2023-05-17T06:10:25.944Z,3.22
2023-05-17T06:12:52.400Z,3.38
2023-05-17T06:15:18.891Z,2.80
2023-05-17T06:17:45.422Z,2.60
2023-05-17T06:20:12.012Z,2.67
2023-05-17T06:22:38.445Z,2.97
2023-05-17T06:25:05.214Z,3.22
2023-05-17T06:27:32.285Z,2.60
2023-05-17T06:29:58.740Z,2.58
2023-05-17T06:32:25.285Z,2.33
2023-05-17T06:34:51.719Z,2.00
2023-05-17T06:37:19.779Z,1.90
2023-05-17T06:39:55.905Z,2.00
2023-05-17T06:42:26.517Z,2.30
2023-05-17T06:44:52.960Z,2.20
2023-05-17T06:47:19.426Z,2.47
2023-05-17T06:49:45.864Z,2.63
2023-05-17T06:52:12.563Z,2.17
2023-05-17T06:54:38.983Z,2.15
2023-05-17T06:57:05.569Z,2.25
2023-05-17T06:59:32.067Z,2.08
2023-05-17T07:02:00.251Z,2.03
2023-05-17T07:04:27.310Z,2.63
2023-05-17T07:06:53.896Z,2.38
2023-05-17T07:09:21.437Z,1.95
2023-05-17T07:11:48.093Z,2.58
2023-05-17T07:14:14.701Z,2.53
2023-05-17T07:16:42.252Z,1.95
2023-05-17T07:19:08.750Z,2.17
2023-05-17T07:21:35.803Z,2.15
2023-05-17T07:24:02.568Z,2.70
2023-05-17T07:26:28.994Z,2.30
2023-05-17T07:28:55.440Z,1.50
2023-05-17T07:31:21.929Z,2.30
2023-05-17T07:33:48.381Z,1.95
2023-05-17T07:36:14.820Z,2.30
2023-05-17T07:38:41.318Z,1.90
2023-05-17T07:41:09.543Z,2.20
2023-05-17T07:43:37.813Z,1.75
2023-05-17T07:46:04.861Z,2.47
2023-05-17T07:48:31.635Z,1.70
2023-05-17T07:50:58.234Z,1.90
2023-05-17T07:53:25.515Z,2.00
2023-05-17T07:55:52.106Z,1.60
2023-05-17T07:58:18.549Z,2.05
2023-05-17T08:00:44.984Z,2.25
2023-05-17T08:03:11.478Z,2.03
2023-05-17T08:05:38.016Z,1.85
2023-05-17T08:08:04.552Z,1.90
2023-05-17T08:10:31.016Z,1.90
2023-05-17T08:12:57.525Z,1.80
2023-05-17T08:15:23.997Z,1.48
2023-05-17T08:17:50.993Z,1.85
2023-05-17T08:20:17.496Z,2.22
2023-05-17T08:22:44.042Z,1.65
2023-05-17T08:25:10.693Z,2.15
2023-05-17T08:27:37.967Z,2.00
2023-05-17T08:30:09.038Z,2.00
2023-05-17T08:32:38.103Z,1.67
2023-05-17T08:35:05.041Z,1.77
2023-05-17T08:37:31.457Z,1.60
2023-05-17T08:39:57.989Z,1.70
2023-05-17T08:42:27.347Z,2.00
2023-05-17T08:44:54.829Z,1.73
2023-05-17T08:47:30.024Z,1.73
2023-05-17T08:50:00.640Z,1.77
2023-05-17T08:52:32.221Z,1.95
2023-05-17T08:55:00.999Z,1.90
2023-05-17T08:57:28.744Z,1.80
2023-05-17T08:59:55.285Z,1.98
2023-05-17T09:02:22.455Z,1.90
2023-05-17T09:04:55.478Z,2.00
2023-05-17T09:07:25.467Z,1.92
2023-05-17T09:09:53.459Z,2.35
2023-05-17T09:12:25.427Z,1.88
2023-05-17T09:14:52.329Z,1.73
2023-05-17T09:17:20.496Z,2.05
2023-05-17T09:19:48.842Z,2.13
2023-05-17T09:22:18.332Z,2.28
2023-05-17T09:24:44.924Z,2.15
2023-05-17T09:27:15.496Z,2.00
2023-05-17T09:29:42.179Z,2.30
2023-05-17T09:32:20.523Z,2.10
2023-05-17T09:34:48.377Z,1.90
2023-05-17T09:37:16.730Z,2.08
2023-05-17T09:39:47.579Z,2.20
2023-05-17T09:42:16.549Z,2.20
2023-05-17T09:44:54.867Z,2.72
2023-05-17T09:47:29.882Z,2.30
2023-05-17T09:49:58.050Z,2.30
2023-05-17T09:52:25.202Z,2.42
2023-05-17T09:54:55.453Z,1.90
2023-05-17T09:57:22.723Z,2.03
2023-05-17T09:59:49.810Z,2.45
2023-05-17T10:02:27.131Z,2.20
2023-05-17T10:04:56.770Z,2.38
2023-05-17T10:07:25.874Z,2.05
2023-05-17T10:09:54.700Z,2.35
2023-05-17T10:12:25.880Z,2.33
2023-05-17T10:14:55.869Z,2.33
2023-05-17T10:17:23.705Z,2.30
2023-05-17T10:19:50.441Z,2.10
2023-05-17T10:22:23.342Z,2.33
2023-05-17T10:24:53.893Z,2.67
2023-05-17T10:27:20.844Z,2.20
2023-05-17T10:29:50.255Z,2.13
2023-05-17T10:32:19.394Z,2.55
2023-05-17T10:34:49.429Z,2.40
2023-05-17T10:37:21.744Z,2.03
2023-05-17T10:39:48.836Z,2.30
2023-05-17T10:42:16.277Z,2.08
2023-05-17T10:44:42.991Z,2.50
2023-05-17T10:47:10.108Z,3.13
2023-05-17T10:49:38.040Z,3.13
2023-05-17T10:52:17.247Z,2.42
2023-05-17T10:54:45.094Z,2.47
2023-05-17T11:00:07.986Z,2.47
2023-05-17T11:02:35.118Z,2.22
2023-05-17T11:05:02.466Z,2.63
2023-05-17T11:07:32.167Z,2.08
2023-05-17T11:10:05.858Z,2.35
2023-05-17T11:12:33.689Z,2.03
2023-05-17T11:15:01.365Z,2.10
2023-05-17T11:17:35.755Z,2.40
2023-05-17T11:20:03.518Z,2.33
2023-05-17T11:22:39.178Z,2.20
2023-05-17T11:25:12.865Z,2.60
2023-05-17T11:27:44.585Z,2.78
2023-05-17T11:30:30.629Z,2.42
2023-05-17T11:33:02.889Z,2.10
2023-05-17T11:35:34.193Z,2.65
2023-05-17T11:38:21.472Z,2.65
2023-05-17T11:40:54.004Z,2.40
2023-05-17T11:43:23.024Z,2.20
2023-05-17T11:45:53.227Z,2.10
2023-05-17T11:48:22.101Z,1.98
2023-05-17T11:50:50.110Z,2.60
2023-05-17T11:53:17.679Z,2.20
2023-05-17T11:55:51.882Z,2.22
2023-05-17T11:58:20.880Z,2.72
2023-05-17T12:00:53.122Z,1.90
2023-05-17T12:03:24.305Z,2.38
2023-05-17T12:05:55.384Z,2.10
2023-05-17T12:08:21.873Z,1.90
2023-05-17T12:10:52.269Z,2.67
2023-05-17T12:13:19.534Z,2.30
2023-05-17T12:15:51.437Z,2.58
2023-05-17T12:18:20.536Z,2.03
2023-05-17T12:20:57.239Z,2.13
2023-05-17T12:23:31.708Z,2.10
2023-05-17T12:26:10.814Z,2.25
2023-05-17T12:28:39.622Z,1.95
2023-05-17T12:31:11.773Z,2.22
2023-05-17T12:33:42.975Z,2.22
2023-05-17T12:36:11.415Z,2.55
2023-05-17T12:38:40.534Z,2.10
2023-05-17T12:41:08.802Z,1.95
2023-05-17T12:43:37.063Z,2.35
2023-05-17T12:46:08.243Z,2.10
2023-05-17T12:48:41.924Z,2.17
2023-05-17T12:51:13.320Z,2.20
2023-05-17T12:53:45.709Z,2.15
2023-05-17T12:58:42.121Z,1.63
2023-05-17T13:01:13.636Z,2.00
2023-05-17T13:03:41.761Z,2.13
2023-05-17T13:06:10.059Z,1.90
2023-05-17T13:08:36.697Z,2.03
2023-05-17T13:11:24.976Z,2.10
2023-05-17T13:13:51.474Z,2.05
2023-05-17T13:16:18.096Z,1.83
2023-05-17T13:18:49.316Z,2.17
2023-05-17T13:21:17.580Z,2.33
2023-05-17T13:23:45.885Z,2.05
2023-05-17T13:26:12.923Z,2.00
2023-05-17T13:28:40.399Z,2.10
2023-05-17T13:31:06.841Z,2.20
2023-05-17T13:33:33.402Z,2.00
2023-05-17T13:36:00.068Z,1.65
2023-05-17T13:38:26.537Z,2.00
2023-05-17T13:40:53.131Z,1.70
2023-05-17T13:43:19.816Z,1.52
2023-05-17T13:45:46.372Z,2.25
2023-05-17T13:48:12.962Z,1.63
2023-05-17T13:50:39.537Z,1.80
2023-05-17T13:53:06.085Z,2.20
2023-05-17T13:55:32.669Z,1.75
2023-05-17T13:57:59.142Z,1.88
2023-05-17T14:00:25.661Z,2.13
2023-05-17T14:02:52.144Z,1.80
2023-05-17T14:05:18.855Z,2.00
2023-05-17T14:07:46.092Z,1.73
2023-05-17T14:10:13.037Z,1.70
2023-05-17T14:12:39.644Z,1.90
2023-05-17T14:15:06.577Z,2.33
2023-05-17T14:17:33.219Z,2.33
2023-05-17T14:19:59.732Z,2.35
2023-05-17T14:22:26.213Z,2.10
2023-05-17T14:24:52.620Z,1.85
2023-05-17T14:27:19.137Z,2.35
2023-05-17T14:29:45.963Z,2.10
2023-05-17T14:32:13.999Z,2.25
2023-05-17T14:34:40.460Z,2.10
2023-05-17T14:37:07.288Z,2.00
2023-05-17T14:39:33.740Z,2.30
2023-05-17T14:42:00.223Z,2.20
2023-05-17T14:44:27.076Z,2.08
2023-05-17T14:46:53.507Z,2.13
2023-05-17T14:49:20.173Z,1.65
2023-05-17T14:51:46.679Z,2.50
2023-05-17T14:54:13.871Z,2.08
2023-05-17T14:56:40.754Z,1.70
2023-05-17T14:59:07.218Z,1.98
2023-05-17T15:01:33.681Z,2.67
2023-05-17T15:04:00.297Z,1.73
2023-05-17T15:06:26.818Z,2.10
2023-05-17T15:08:53.317Z,1.98
2023-05-17T15:11:20.167Z,1.70
2023-05-17T15:13:46.761Z,1.83
2023-05-17T15:16:13.363Z,1.63
2023-05-17T15:18:39.906Z,1.85
2023-05-17T15:21:06.545Z,1.80
2023-05-17T15:23:33.027Z,1.77
2023-05-17T15:25:59.420Z,1.75
2023-05-17T15:28:26.080Z,2.08
2023-05-17T15:31:02.832Z,2.05
2023-05-17T15:33:30.688Z,2.20
2023-05-17T15:35:57.200Z,2.50
2023-05-17T15:38:23.967Z,2.00
2023-05-17T15:41:12.341Z,1.85
2023-05-17T15:43:38.759Z,1.92
2023-05-17T15:46:05.239Z,1.90
2023-05-17T15:48:32.158Z,2.15
2023-05-17T15:50:58.724Z,1.63
2023-05-17T15:53:25.962Z,1.80
2023-05-17T15:55:52.473Z,2.08
2023-05-17T15:58:19.666Z,1.90
2023-05-17T16:00:46.354Z,1.80
2023-05-17T16:03:13.934Z,2.33
2023-05-17T16:05:41.099Z,2.13
2023-05-17T16:08:08.302Z,2.28
2023-05-17T16:10:35.440Z,2.08
2023-05-17T16:13:02.442Z,2.08
2023-05-17T16:15:29.058Z,1.80
2023-05-17T16:17:55.970Z,2.20
2023-05-17T16:20:22.420Z,1.98
2023-05-17T16:22:49.311Z,1.90
2023-05-17T16:25:16.480Z,1.85
2023-05-17T16:27:43.288Z,2.20
2023-05-17T16:30:09.787Z,1.80
2023-05-17T16:32:36.869Z,2.05
2023-05-17T16:35:03.561Z,2.10
2023-05-17T16:37:30.174Z,2.03
2023-05-17T16:39:57.677Z,2.50
2023-05-17T16:42:24.301Z,2.30
2023-05-17T16:44:50.938Z,2.15
2023-05-17T16:47:17.573Z,2.20
2023-05-17T16:49:44.412Z,2.30
2023-05-17T16:52:10.998Z,2.47
2023-05-17T16:54:38.673Z,2.13
2023-05-17T16:57:08.176Z,2.47
2023-05-17T16:59:35.060Z,2.15
2023-05-17T17:02:01.603Z,2.00
2023-05-17T17:04:28.178Z,2.03
2023-05-17T17:06:54.686Z,2.10
2023-05-17T17:09:21.258Z,2.20
2023-05-17T17:11:47.884Z,2.03
2023-05-17T17:14:14.665Z,2.90
2023-05-17T17:16:41.899Z,3.58
2023-05-17T17:19:09.555Z,3.03
2023-05-17T17:21:39.347Z,2.83
2023-05-17T17:24:06.499Z,2.20
2023-05-17T17:26:35.402Z,2.20
2023-05-17T17:29:03.804Z,2.58
2023-05-17T17:31:31.444Z,2.35
2023-05-17T17:33:58.226Z,2.58
2023-05-17T17:36:25.943Z,2.80
2023-05-17T17:38:52.448Z,2.85
2023-05-17T17:41:19.064Z,3.08
2023-05-17T17:43:47.956Z,3.00
2023-05-17T17:46:14.898Z,2.97
2023-05-17T17:48:41.581Z,2.60
2023-05-17T17:51:08.177Z,2.58
2023-05-17T17:53:34.617Z,2.92
2023-05-17T17:56:01.331Z,2.95
2023-05-17T17:58:28.011Z,1.92
2023-05-17T18:00:54.627Z,2.90
2023-05-17T18:03:21.097Z,3.28
2023-05-17T18:05:47.567Z,5.93
2023-05-17T18:08:13.993Z,2.40
2023-05-17T18:10:40.410Z,2.13
2023-05-17T18:13:06.842Z,2.67
2023-05-17T18:15:33.279Z,2.80
2023-05-17T18:17:59.822Z,2.15
2023-05-17T18:20:26.423Z,2.42
2023-05-17T18:22:53.356Z,2.30
2023-05-17T18:25:19.789Z,2.15
2023-05-17T18:27:46.296Z,2.38
2023-05-17T18:30:12.926Z,2.22
2023-05-17T18:35:06.184Z,3.00
2023-05-17T18:37:32.873Z,2.40
2023-05-17T18:40:02.162Z,2.10
2023-05-17T18:42:28.933Z,2.45
2023-05-17T18:44:55.408Z,2.10
2023-05-17T18:47:23.478Z,2.45
2023-05-17T18:49:51.822Z,2.28
2023-05-17T18:52:18.230Z,2.63
2023-05-17T18:54:45.292Z,2.17
2023-05-17T18:57:13.915Z,2.40
2023-05-17T18:59:40.756Z,2.88
2023-05-17T19:02:07.929Z,2.80
2023-05-17T19:04:34.530Z,3.42
2023-05-17T19:07:01.069Z,3.08
2023-05-17T19:09:27.521Z,2.42
2023-05-17T19:11:53.974Z,2.65
2023-05-17T19:14:21.025Z,2.70
2023-05-17T19:16:47.462Z,2.78
2023-05-17T19:19:13.950Z,3.17
2023-05-17T19:21:40.703Z,2.92
2023-05-17T19:24:07.228Z,2.63
2023-05-17T19:26:33.675Z,2.47
2023-05-17T19:29:00.073Z,2.15
2023-05-17T19:31:26.562Z,2.40
2023-05-17T19:33:53.086Z,2.33
2023-05-17T19:36:19.571Z,2.60
2023-05-17T19:38:45.983Z,1.98
2023-05-17T19:41:12.428Z,2.35
2023-05-17T19:43:38.840Z,2.13
2023-05-17T19:46:09.178Z,2.42
2023-05-17T19:48:35.615Z,2.30
2023-05-17T19:51:02.760Z,3.00
2023-05-17T19:53:40.403Z,2.58
2023-05-17T19:56:14.691Z,2.33
2023-05-17T19:58:41.095Z,2.55
2023-05-17T20:01:07.529Z,2.33
2023-05-17T20:03:34.029Z,2.88
2023-05-17T20:06:00.619Z,2.60
2023-05-17T20:08:27.219Z,2.53
2023-05-17T20:10:53.617Z,2.67
2023-05-17T20:13:23.963Z,2.40
2023-05-17T20:15:50.441Z,2.50
2023-05-17T20:18:16.890Z,2.55
2023-05-17T20:20:43.384Z,3.00
2023-05-17T20:23:09.865Z,3.08
2023-05-17T20:25:37.895Z,2.90
2023-05-17T20:28:04.372Z,2.70
2023-05-17T20:30:31.077Z,2.88
2023-05-17T20:32:57.729Z,2.50
2023-05-17T20:35:24.203Z,3.00
2023-05-17T20:37:50.679Z,2.83
2023-05-17T20:40:17.149Z,2.65
2023-05-17T20:42:45.774Z,2.85
2023-05-17T20:45:14.521Z,3.10
2023-05-17T20:47:41.232Z,2.83
2023-05-17T20:50:08.966Z,3.33
2023-05-17T20:52:39.241Z,3.33
2023-05-17T20:55:07.850Z,3.50
2023-05-17T20:57:34.250Z,3.88
2023-05-17T21:00:00.686Z,3.20
2023-05-17T21:02:27.187Z,3.67
2023-05-17T21:04:54.577Z,3.55
2023-05-17T21:07:21.069Z,3.80
2023-05-17T21:09:47.536Z,3.35
2023-05-17T21:12:13.998Z,3.35
2023-05-17T21:14:40.478Z,3.58
2023-05-17T21:17:06.905Z,3.55
2023-05-17T21:19:33.333Z,3.83
2023-05-17T21:21:59.900Z,3.20
2023-05-17T21:24:26.311Z,3.45
2023-05-17T21:26:52.788Z,3.78
2023-05-17T21:29:19.286Z,3.28
2023-05-17T21:31:46.013Z,3.13
2023-05-17T21:34:12.528Z,3.30
2023-05-17T21:36:38.928Z,3.38
2023-05-17T21:39:05.405Z,3.50
2023-05-17T21:41:32.308Z,3.53
2023-05-17T21:43:58.708Z,3.13
2023-05-17T21:46:25.480Z,3.65
2023-05-17T21:48:52.195Z,3.20
2023-05-17T21:51:18.650Z,3.50
2023-05-17T21:53:45.155Z,3.90
2023-05-17T21:56:11.573Z,3.80
2023-05-17T21:58:38.006Z,3.97
2023-05-17T22:01:04.580Z,4.15
2023-05-17T22:03:31.399Z,3.88
2023-05-17T22:05:58.321Z,4.32
2023-05-17T22:08:24.768Z,4.38
2023-05-17T22:10:51.449Z,4.10
2023-05-17T22:13:18.205Z,4.00
2023-05-17T22:15:45.130Z,4.40
2023-05-17T22:18:12.374Z,4.47
2023-05-17T22:20:39.004Z,4.68
2023-05-17T22:23:05.503Z,4.07
2023-05-17T22:25:31.989Z,3.63
2023-05-17T22:27:58.427Z,3.95
2023-05-17T22:30:24.875Z,3.90
2023-05-17T22:32:54.524Z,4.03
2023-05-17T22:35:21.496Z,4.75
2023-05-17T22:37:49.978Z,4.47
2023-05-17T22:40:16.445Z,4.53
2023-05-17T22:42:43.120Z,4.20
2023-05-17T22:45:10.184Z,5.60
2023-05-17T22:47:36.691Z,4.93
2023-05-17T22:50:03.244Z,4.97
2023-05-17T22:52:29.683Z,4.88
2023-05-17T22:54:56.082Z,4.97
2023-05-17T22:57:22.484Z,4.78
2023-05-17T22:59:48.889Z,5.13
2023-05-17T23:02:15.333Z,5.43
2023-05-17T23:04:41.841Z,4.00
2023-05-17T23:07:09.756Z,4.72
2023-05-17T23:09:40.222Z,4.70
2023-05-17T23:12:07.403Z,4.68
2023-05-17T23:14:36.113Z,4.88
2023-05-17T23:17:05.417Z,4.55
2023-05-17T23:19:35.502Z,4.30
2023-05-17T23:22:03.227Z,3.90
2023-05-17T23:24:30.044Z,4.57
2023-05-17T23:26:57.532Z,4.20
2023-05-17T23:29:23.946Z,4.28
2023-05-17T23:31:50.614Z,4.70
2023-05-17T23:34:17.266Z,4.43
2023-05-17T23:36:43.667Z,5.07
2023-05-17T23:39:10.659Z,4.57
2023-05-17T23:41:39.672Z,5.10
2023-05-17T23:44:06.301Z,4.47
2023-05-17T23:46:33.079Z,5.03
2023-05-17T23:48:59.570Z,4.40
2023-05-17T23:51:26.038Z,4.85
2023-05-17T23:53:52.484Z,4.20
2023-05-17T23:56:19.515Z,4.80
2023-05-17T23:58:46.363Z,4.75
